CYDP

Nain Airport

Nain, Canada
METAR CYDP 191300Z 30019G25KT 15SM FEW040 FEW150 FEW230 M13/M18 A2982 RMK SC1AC1CI1 SC TR AC TR CI TR SLP100
Observed Flight Rules
Nov-19 @ 13:00 UTC (42 minutes ago) Visual Flight Rules
Wind Visibility Clouds
300° at 19 knots
 Gusting to 25 knots
15 miles
  • Few at 4,000' AGL
  • Few at 15,000' AGL
  • Few at 23,000' AGL
Temperatures Readings
Current -13°C / 9°F
Dewpoint -18°C / -0°F
Humidity 66%
Altimeter 29.82" Hg
Pressure 1010 hPa
Elevation 7
METAR CYDP 191300Z 30019G25KT 15SM FEW040 FEW150 FEW230 M13/M18 A2982 RMK SC1AC1CI1 SC TR AC TR CI TR SLP100
Observed Flight Rules
Nov-19 @ 13:00 UTC
(42 minutes ago)
VFR
Wind Visibility
300° at 19 knots
 Gusting to 25 knots
15 miles
Clouds
  • Few at 4,000' AGL
  • Few at 15,000' AGL
  • Few at 23,000' AGL
Temperature Dewpoint
-13°C / 9°F -18°C / -0°F
Humidity Altimeter Pressure
66% 29.82" Hg 1010 hPa